createdAt,value
2018-10-21T00:00:19.037Z,6.80
2018-10-21T00:03:23.207Z,5.90
2018-10-21T00:06:27.372Z,4.00
2018-10-21T00:09:31.506Z,4.40
2018-10-21T00:12:35.909Z,4.93
2018-10-21T00:15:40.614Z,4.30
2018-10-21T00:18:44.570Z,3.63
2018-10-21T00:21:48.839Z,4.57
2018-10-21T00:24:53.405Z,5.37
2018-10-21T00:27:57.595Z,10.30
2018-10-21T00:31:01.960Z,13.43
2018-10-21T00:34:06.544Z,12.80
2018-10-21T00:37:10.725Z,8.87
2018-10-21T00:40:14.801Z,6.20
2018-10-21T00:43:18.935Z,6.07
2018-10-21T00:46:23.172Z,4.53
2018-10-21T00:49:27.415Z,5.27
2018-10-21T00:52:31.491Z,5.30
2018-10-21T00:55:35.608Z,4.60
2018-10-21T00:58:39.790Z,5.27
2018-10-21T01:01:44.564Z,5.43
2018-10-21T01:04:48.625Z,4.23
2018-10-21T01:07:52.827Z,3.83
2018-10-21T01:10:57.125Z,4.23
2018-10-21T01:14:01.388Z,4.07
2018-10-21T01:17:05.766Z,4.00
2018-10-21T01:20:12.697Z,5.00
2018-10-21T01:23:16.843Z,4.97
2018-10-21T01:26:21.248Z,4.60
2018-10-21T01:29:25.357Z,4.00
2018-10-21T01:32:29.509Z,4.03
2018-10-21T01:35:34.028Z,3.63
2018-10-21T01:38:38.203Z,3.63
2018-10-21T01:41:42.418Z,2.97
2018-10-21T01:44:46.818Z,3.97
2018-10-21T01:47:51.232Z,4.17
2018-10-21T01:50:55.531Z,3.90
2018-10-21T01:53:59.816Z,4.60
2018-10-21T01:57:04.078Z,5.57
2018-10-21T02:00:08.646Z,5.77
2018-10-21T02:03:13.212Z,5.33
2018-10-21T02:06:17.395Z,5.80
2018-10-21T02:09:21.544Z,4.97
2018-10-21T02:12:26.387Z,4.00
2018-10-21T02:15:30.992Z,5.53
2018-10-21T02:18:35.380Z,5.17
2018-10-21T02:21:39.646Z,6.07
2018-10-21T02:24:43.925Z,6.37
2018-10-21T02:27:48.970Z,6.57
2018-10-21T02:30:53.190Z,6.03
2018-10-21T02:33:57.411Z,10.47
2018-10-21T02:37:01.552Z,12.27
2018-10-21T02:40:06.382Z,8.00
2018-10-21T02:43:10.601Z,6.97
2018-10-21T02:46:14.808Z,6.47
2018-10-21T02:49:19.860Z,5.77
2018-10-21T02:52:24.062Z,7.80
2018-10-21T02:55:28.327Z,8.20
2018-10-21T02:58:32.505Z,12.67
2018-10-21T03:01:36.759Z,12.07
2018-10-21T03:04:40.912Z,7.47
2018-10-21T03:07:45.173Z,5.77
2018-10-21T03:10:49.339Z,4.00
2018-10-21T03:13:53.604Z,5.30
2018-10-21T03:16:57.800Z,5.00
2018-10-21T03:20:01.973Z,5.87
2018-10-21T03:23:06.436Z,4.73
2018-10-21T03:26:10.770Z,5.80
2018-10-21T03:29:14.951Z,4.33
2018-10-21T03:32:19.159Z,5.30
2018-10-21T03:35:23.299Z,7.33
2018-10-21T03:38:27.558Z,4.60
2018-10-21T03:41:31.692Z,5.37
2018-10-21T03:44:35.952Z,4.73
2018-10-21T03:47:40.138Z,4.10
2018-10-21T03:50:44.397Z,4.97
2018-10-21T03:53:48.860Z,6.73
2018-10-21T03:56:53.195Z,6.07
2018-10-21T03:59:57.837Z,6.30
2018-10-21T04:03:02.445Z,7.10
2018-10-21T04:06:06.879Z,5.70
2018-10-21T04:09:11.603Z,6.43
2018-10-21T04:12:16.147Z,6.63
2018-10-21T04:15:20.593Z,7.77
2018-10-21T04:18:24.962Z,7.40
2018-10-21T04:21:29.430Z,6.53
2018-10-21T04:24:33.822Z,7.80
2018-10-21T04:27:38.310Z,7.23
2018-10-21T04:30:43.506Z,7.80
2018-10-21T04:33:48.091Z,8.90
2018-10-21T04:36:53.528Z,8.27
2018-10-21T04:40:08.346Z,6.57
2018-10-21T04:43:12.524Z,5.87
2018-10-21T04:46:16.869Z,7.27
2018-10-21T04:49:21.018Z,6.90
2018-10-21T04:52:25.398Z,6.83
2018-10-21T04:55:29.583Z,6.13
2018-10-21T04:58:33.682Z,5.70
2018-10-21T05:01:37.868Z,5.70
2018-10-21T05:04:42.017Z,7.37
2018-10-21T05:07:46.227Z,8.90
2018-10-21T05:10:50.474Z,7.23
2018-10-21T05:13:54.679Z,7.13
2018-10-21T05:16:58.847Z,6.20
2018-10-21T05:20:03.026Z,5.30
2018-10-21T05:23:07.342Z,4.90
2018-10-21T05:26:11.383Z,4.87
2018-10-21T05:29:15.568Z,4.87
2018-10-21T05:32:19.673Z,5.70
2018-10-21T05:35:23.899Z,4.83
2018-10-21T05:38:28.223Z,5.47
2018-10-21T05:41:32.337Z,8.60
2018-10-21T05:44:36.696Z,8.30
2018-10-21T05:47:41.731Z,8.97
2018-10-21T05:50:46.011Z,8.30
2018-10-21T05:53:50.459Z,6.20
2018-10-21T05:56:54.934Z,7.10
2018-10-21T05:59:59.929Z,4.70
2018-10-21T06:03:04.354Z,6.57
2018-10-21T06:06:08.772Z,6.47
2018-10-21T06:09:14.052Z,7.67
2018-10-21T06:12:18.425Z,7.03
2018-10-21T06:15:22.800Z,7.33
2018-10-21T06:18:28.317Z,7.67
2018-10-21T06:21:32.742Z,6.77
2018-10-21T06:24:37.197Z,5.77
2018-10-21T06:27:41.750Z,5.80
2018-10-21T06:30:46.180Z,5.60
2018-10-21T06:33:50.666Z,6.87
2018-10-21T06:36:55.116Z,5.77
2018-10-21T06:39:59.559Z,5.97
2018-10-21T06:43:03.902Z,6.53
2018-10-21T06:46:08.216Z,7.33
2018-10-21T06:49:12.609Z,7.67
2018-10-21T06:52:17.113Z,7.53
2018-10-21T06:55:21.506Z,7.40
2018-10-21T06:58:25.884Z,7.60
2018-10-21T07:01:31.010Z,7.47
2018-10-21T07:04:35.556Z,9.07
2018-10-21T07:07:40.219Z,8.43
2018-10-21T07:10:44.867Z,9.20
2018-10-21T07:13:49.381Z,8.87
2018-10-21T07:16:53.833Z,8.37
2018-10-21T07:19:58.040Z,9.27
2018-10-21T07:23:02.174Z,8.83
2018-10-21T07:26:06.381Z,9.80
2018-10-21T07:29:10.509Z,10.00
2018-10-21T07:32:14.558Z,10.70
2018-10-21T07:35:18.742Z,10.00
2018-10-21T07:38:23.051Z,10.43
2018-10-21T07:41:27.187Z,10.03
2018-10-21T07:44:31.318Z,11.03
2018-10-21T07:47:35.531Z,10.10
2018-10-21T07:50:39.664Z,11.37
2018-10-21T07:53:43.887Z,11.47
2018-10-21T07:56:48.164Z,11.67
2018-10-21T07:59:52.243Z,11.37
2018-10-21T08:02:56.533Z,12.40
2018-10-21T08:06:09.562Z,11.50
2018-10-21T08:09:13.961Z,11.00
2018-10-21T08:12:18.066Z,12.10
2018-10-21T08:15:22.200Z,13.60
2018-10-21T08:18:26.513Z,16.00
2018-10-21T08:21:30.734Z,17.60
2018-10-21T08:24:34.920Z,14.73
2018-10-21T08:27:39.040Z,11.07
2018-10-21T08:30:43.172Z,14.47
2018-10-21T08:33:47.361Z,18.27
2018-10-21T08:36:51.623Z,17.17
2018-10-21T08:39:55.882Z,12.37
2018-10-21T08:43:00.176Z,13.77
2018-10-21T08:46:04.881Z,12.00
2018-10-21T08:49:09.169Z,12.47
2018-10-21T08:52:13.441Z,9.90
2018-10-21T08:55:17.729Z,9.47
2018-10-21T08:58:21.776Z,8.93
2018-10-21T09:01:26.035Z,7.43
2018-10-21T09:04:30.231Z,7.00
2018-10-21T09:07:34.339Z,5.80
2018-10-21T09:10:38.645Z,5.57
2018-10-21T09:13:42.957Z,6.17
2018-10-21T09:16:47.240Z,5.03
2018-10-21T09:19:51.417Z,5.50
2018-10-21T09:22:55.546Z,5.90
2018-10-21T09:25:59.702Z,5.10
2018-10-21T09:29:03.876Z,5.07
2018-10-21T09:32:08.050Z,5.27
2018-10-21T09:35:14.457Z,5.27
2018-10-21T09:38:18.633Z,5.40
2018-10-21T09:41:23.360Z,4.60
2018-10-21T09:44:28.179Z,4.00
2018-10-21T09:47:32.840Z,4.50
2018-10-21T09:50:37.196Z,4.40
2018-10-21T09:53:41.526Z,3.67
2018-10-21T09:56:45.651Z,3.90
2018-10-21T09:59:49.851Z,3.53
2018-10-21T10:02:58.083Z,4.50
2018-10-21T10:06:02.301Z,2.77
2018-10-21T10:09:09.316Z,2.80
2018-10-21T10:12:13.482Z,2.17
2018-10-21T10:15:17.873Z,2.70
2018-10-21T10:18:22.043Z,2.57
2018-10-21T10:21:26.296Z,3.20
2018-10-21T10:24:30.431Z,2.97
2018-10-21T10:27:34.554Z,2.50
2018-10-21T10:30:38.817Z,3.70
2018-10-21T10:33:42.888Z,2.87
2018-10-21T10:36:47.101Z,3.20
2018-10-21T10:39:51.271Z,3.07
2018-10-21T10:42:55.405Z,2.13
2018-10-21T10:45:59.621Z,2.00
2018-10-21T10:49:03.821Z,2.60
2018-10-21T10:52:07.936Z,3.03
2018-10-21T10:55:12.233Z,2.77
2018-10-21T10:58:17.480Z,2.77
2018-10-21T11:01:21.942Z,2.57
2018-10-21T11:04:25.987Z,2.37
2018-10-21T11:07:30.170Z,2.17
2018-10-21T11:10:34.337Z,1.70
2018-10-21T11:13:38.582Z,2.03
2018-10-21T11:16:42.790Z,1.73
2018-10-21T11:19:46.962Z,1.97
2018-10-21T11:22:51.211Z,1.87
2018-10-21T11:25:55.338Z,1.90
2018-10-21T11:28:59.527Z,2.30
2018-10-21T11:32:03.691Z,2.30
2018-10-21T11:35:08.595Z,2.40
2018-10-21T11:38:12.765Z,2.10
2018-10-21T11:41:16.914Z,1.70
2018-10-21T11:44:21.129Z,1.93
2018-10-21T11:47:25.488Z,1.90
2018-10-21T11:50:29.778Z,1.57
2018-10-21T11:53:33.996Z,1.40
2018-10-21T11:56:38.548Z,1.30
2018-10-21T11:59:42.642Z,1.63
2018-10-21T12:02:46.839Z,1.47
2018-10-21T12:05:50.876Z,1.53
2018-10-21T12:08:55.043Z,1.60
2018-10-21T12:11:59.253Z,1.60
2018-10-21T12:15:03.322Z,1.77
2018-10-21T12:18:08.236Z,1.50
2018-10-21T12:21:12.654Z,1.60
2018-10-21T12:24:17.111Z,1.90
2018-10-21T12:27:21.545Z,1.80
2018-10-21T12:30:25.920Z,1.83
2018-10-21T12:33:32.393Z,1.80
2018-10-21T12:36:36.569Z,2.03
2018-10-21T12:39:40.660Z,2.20
2018-10-21T12:42:44.899Z,2.27
2018-10-21T12:45:49.268Z,2.30
2018-10-21T12:48:53.474Z,2.30
2018-10-21T12:51:57.663Z,2.43
2018-10-21T12:55:01.931Z,2.03
2018-10-21T12:58:06.767Z,2.47
2018-10-21T13:01:11.114Z,2.57
2018-10-21T13:04:15.345Z,2.20
2018-10-21T13:07:19.820Z,1.80
2018-10-21T13:10:24.253Z,3.43
2018-10-21T13:13:28.531Z,1.93
2018-10-21T13:16:32.645Z,2.07
2018-10-21T13:19:36.841Z,2.10
2018-10-21T13:22:41.035Z,2.03
2018-10-21T13:25:45.164Z,1.57
2018-10-21T13:28:49.458Z,1.80
2018-10-21T13:31:53.532Z,1.60
2018-10-21T13:34:57.759Z,2.30
2018-10-21T13:38:01.980Z,1.50
2018-10-21T13:41:06.609Z,2.30
2018-10-21T13:44:11.040Z,2.03
2018-10-21T13:47:15.161Z,1.37
2018-10-21T13:50:19.370Z,1.30
2018-10-21T13:53:23.532Z,1.67
2018-10-21T13:56:27.692Z,1.37
2018-10-21T13:59:32.463Z,1.80
2018-10-21T14:02:36.618Z,1.90
2018-10-21T14:05:40.779Z,1.57
2018-10-21T14:08:45.080Z,1.67
2018-10-21T14:11:49.299Z,1.73
2018-10-21T14:14:53.396Z,1.67
2018-10-21T14:17:57.615Z,1.47
2018-10-21T14:21:02.590Z,1.73
2018-10-21T14:24:06.835Z,2.07
2018-10-21T14:27:10.941Z,1.37
2018-10-21T14:30:15.305Z,1.50
2018-10-21T14:33:19.303Z,1.50
2018-10-21T14:36:23.547Z,1.20
2018-10-21T14:39:27.746Z,1.60
2018-10-21T14:42:31.860Z,1.50
2018-10-21T14:45:36.040Z,1.70
2018-10-21T14:48:40.251Z,1.60
2018-10-21T14:51:44.490Z,1.83
2018-10-21T14:54:48.558Z,1.50
2018-10-21T14:57:52.787Z,1.40
2018-10-21T15:00:56.909Z,1.60
2018-10-21T15:04:01.131Z,1.50
2018-10-21T15:07:05.546Z,1.37
2018-10-21T15:10:10.407Z,1.50
2018-10-21T15:13:14.500Z,3.20
2018-10-21T15:16:18.759Z,2.00
2018-10-21T15:19:22.862Z,1.50
2018-10-21T15:22:27.103Z,1.83
2018-10-21T15:25:31.215Z,1.83
2018-10-21T15:28:35.569Z,1.70
2018-10-21T15:31:39.759Z,1.40
2018-10-21T15:34:43.935Z,1.57
2018-10-21T15:37:48.030Z,1.60
2018-10-21T15:40:52.217Z,1.83
2018-10-21T15:43:56.478Z,1.57
2018-10-21T15:47:00.659Z,1.63
2018-10-21T15:50:05.038Z,1.90
2018-10-21T15:53:09.197Z,2.33
2018-10-21T15:56:13.367Z,1.83
2018-10-21T15:59:17.487Z,1.73
2018-10-21T16:02:21.765Z,1.57
2018-10-21T16:05:25.904Z,1.70
2018-10-21T16:08:30.022Z,1.90
2018-10-21T16:11:34.220Z,2.07
2018-10-21T16:14:38.358Z,2.00
2018-10-21T16:17:43.109Z,1.83
2018-10-21T16:20:47.196Z,1.70
2018-10-21T16:23:51.503Z,1.80
2018-10-21T16:26:55.656Z,2.00
2018-10-21T16:29:59.989Z,2.00
2018-10-21T16:33:04.220Z,1.87
2018-10-21T16:36:08.478Z,2.50
2018-10-21T16:39:12.792Z,2.30
2018-10-21T16:42:16.967Z,1.93
2018-10-21T16:45:21.191Z,2.33
2018-10-21T16:48:25.475Z,2.37
2018-10-21T16:51:29.650Z,3.07
2018-10-21T16:54:33.845Z,2.90
2018-10-21T16:57:38.547Z,2.10
2018-10-21T17:00:42.845Z,2.17
2018-10-21T17:03:46.823Z,1.73
2018-10-21T17:06:51.039Z,2.33
2018-10-21T17:09:55.698Z,2.50
2018-10-21T17:12:59.552Z,2.50
2018-10-21T17:16:03.795Z,2.23
2018-10-21T17:19:07.963Z,2.80
2018-10-21T17:22:12.177Z,2.60
2018-10-21T17:25:16.685Z,1.80
2018-10-21T17:28:20.822Z,2.07
2018-10-21T17:31:24.960Z,2.40
2018-10-21T17:34:29.092Z,2.70
2018-10-21T17:37:33.210Z,2.47
2018-10-21T17:40:37.498Z,2.07
2018-10-21T17:43:41.609Z,2.60
2018-10-21T17:46:45.783Z,2.03
2018-10-21T17:49:49.987Z,2.07
2018-10-21T17:52:55.191Z,2.27
2018-10-21T17:55:59.288Z,2.00
2018-10-21T17:59:03.340Z,2.30
2018-10-21T18:02:07.529Z,2.10
2018-10-21T18:05:13.967Z,2.30
2018-10-21T18:08:18.349Z,2.37
2018-10-21T18:11:22.764Z,1.90
2018-10-21T18:14:27.208Z,2.60
2018-10-21T18:17:31.646Z,2.67
2018-10-21T18:20:36.126Z,2.50
2018-10-21T18:23:40.499Z,3.00
2018-10-21T18:26:45.027Z,2.27
2018-10-21T18:29:49.413Z,2.37
2018-10-21T18:32:53.980Z,2.57
2018-10-21T18:35:58.363Z,2.23
2018-10-21T18:39:02.836Z,2.10
2018-10-21T18:42:07.481Z,2.37
2018-10-21T18:45:13.744Z,1.87
2018-10-21T18:48:17.991Z,2.20
2018-10-21T18:51:22.545Z,2.50
2018-10-21T18:54:27.031Z,2.53
2018-10-21T18:57:31.744Z,3.10
2018-10-21T19:00:36.110Z,2.20
2018-10-21T19:03:40.691Z,2.40
2018-10-21T19:06:45.215Z,2.20
2018-10-21T19:09:49.554Z,2.67
2018-10-21T19:13:00.049Z,2.30
2018-10-21T19:15:58.665Z,2.80
2018-10-21T19:19:03.073Z,2.50
2018-10-21T19:22:07.819Z,2.30
2018-10-21T19:25:13.735Z,2.70
2018-10-21T19:28:18.265Z,2.30
2018-10-21T19:31:22.648Z,2.37
2018-10-21T19:34:27.177Z,2.50
2018-10-21T19:37:31.726Z,2.60
2018-10-21T19:40:36.165Z,2.27
2018-10-21T19:43:40.817Z,2.80
2018-10-21T19:46:45.296Z,2.67
2018-10-21T19:49:49.758Z,2.47
2018-10-21T19:52:54.336Z,2.47
2018-10-21T19:55:58.866Z,3.47
2018-10-21T19:59:04.558Z,2.33
2018-10-21T20:02:09.158Z,2.50
2018-10-21T20:05:13.549Z,2.50
2018-10-21T20:08:17.929Z,2.70
2018-10-21T20:11:22.477Z,2.37
2018-10-21T20:14:27.072Z,2.83
2018-10-21T20:17:31.675Z,2.70
2018-10-21T20:20:36.338Z,2.63
2018-10-21T20:23:40.874Z,2.60
2018-10-21T20:26:45.359Z,2.90
2018-10-21T20:29:49.718Z,2.83
2018-10-21T20:32:54.104Z,2.57
2018-10-21T20:35:58.412Z,2.67
2018-10-21T20:39:02.809Z,2.80
2018-10-21T20:42:07.301Z,2.93
2018-10-21T20:45:12.852Z,2.90
2018-10-21T20:48:17.348Z,3.30
2018-10-21T20:51:21.755Z,2.70
2018-10-21T20:54:30.210Z,2.90
2018-10-21T20:57:34.825Z,3.07
2018-10-21T21:00:39.251Z,3.10
2018-10-21T21:03:43.655Z,3.40
2018-10-21T21:06:48.017Z,3.07
2018-10-21T21:09:52.405Z,3.50
2018-10-21T21:12:56.849Z,3.10
2018-10-21T21:16:01.298Z,3.00
2018-10-21T21:19:05.935Z,2.90
2018-10-21T21:22:10.708Z,3.07
2018-10-21T21:25:14.994Z,3.13
2018-10-21T21:28:19.212Z,2.87
2018-10-21T21:31:23.398Z,2.77
2018-10-21T21:34:27.638Z,2.90
2018-10-21T21:37:31.981Z,3.10
2018-10-21T21:40:36.169Z,3.60
2018-10-21T21:43:40.490Z,3.20
2018-10-21T21:46:44.750Z,3.10
2018-10-21T21:49:48.851Z,3.10
2018-10-21T21:52:53.045Z,3.00
2018-10-21T21:55:57.252Z,3.57
2018-10-21T21:59:01.398Z,3.07
2018-10-21T22:02:05.811Z,2.80
2018-10-21T22:05:10.589Z,3.00
2018-10-21T22:08:14.875Z,3.10
2018-10-21T22:11:19.185Z,3.43
2018-10-21T22:14:23.508Z,3.30
2018-10-21T22:17:27.833Z,3.07
2018-10-21T22:20:32.020Z,3.10
2018-10-21T22:23:36.169Z,3.27
2018-10-21T22:26:40.395Z,3.27
2018-10-21T22:29:44.622Z,3.03
2018-10-21T22:32:48.854Z,3.10
2018-10-21T22:35:53.107Z,3.17
2018-10-21T22:38:57.282Z,2.80
2018-10-21T22:42:01.537Z,3.27
2018-10-21T22:45:07.566Z,3.70
2018-10-21T22:48:11.775Z,3.30
2018-10-21T22:51:15.876Z,3.00
2018-10-21T22:54:20.184Z,3.83
2018-10-21T22:57:24.454Z,3.73
2018-10-21T23:00:28.639Z,3.70
2018-10-21T23:03:32.878Z,2.83
2018-10-21T23:06:37.060Z,3.27
2018-10-21T23:09:41.638Z,3.27
2018-10-21T23:12:45.803Z,3.70
2018-10-21T23:15:49.990Z,3.70
2018-10-21T23:19:02.999Z,3.93
2018-10-21T23:22:07.586Z,3.73
2018-10-21T23:25:11.776Z,3.67
2018-10-21T23:28:16.056Z,3.60
2018-10-21T23:31:20.388Z,4.23
2018-10-21T23:34:25.282Z,4.20
2018-10-21T23:37:29.375Z,3.77
2018-10-21T23:40:33.610Z,4.40
2018-10-21T23:43:37.837Z,4.10
2018-10-21T23:46:42.065Z,4.30
2018-10-21T23:49:46.229Z,4.63
2018-10-21T23:52:50.446Z,4.40
2018-10-21T23:55:54.671Z,4.10
2018-10-21T23:58:58.977Z,4.37
